Time;durP1;ratioP1;P1;durP2;ratioP2;P2;SDS_P1;SDS_P2;PMS_P1;PMS_P2;Temp;Humidity;BMP_temperature;BMP_pressure;BME280_temperature;BME280_humidity;BME280_pressure;Samples;Min_cycle;Max_cycle;Signal;HPM_P1;HPM_P2
2022/01/15 00:01:01;;;;;;;25.17;6.65;;;;;;;;;;4945628;28;20803;-84
2022/01/15 00:03:27;;;;;;;23.30;6.75;;;;;;;;;;4949100;28;20114;-82
2022/01/15 00:05:55;;;;;;;24.48;6.68;;;;;;;;;;4945538;28;20050;-83
2022/01/15 00:08:21;;;;;;;28.35;6.85;;;;;;;;;;4946806;28;20039;-84
2022/01/15 00:10:47;;;;;;;16.95;5.97;;;;;;;;;;4947899;28;20027;-84
2022/01/15 00:13:23;;;;;;;18.30;5.32;;;;;;;;;;4940255;28;20019;-84
2022/01/15 00:16:00;;;;;;;;;;;;;;;;;;4967633;28;20028;-84
2022/01/15 00:18:29;;;;;;;17.17;6.18;;;;;;;;;;4943385;28;19915;-83
2022/01/15 00:20:55;;;;;;;14.55;4.70;;;;;;;;;;4945244;28;20031;-84
2022/01/15 00:23:21;;;;;;;13.98;5.32;;;;;;;;;;4925980;28;20051;-84
2022/01/15 00:25:47;;;;;;;15.70;4.60;;;;;;;;;;4926590;29;20122;-83
2022/01/15 00:28:13;;;;;;;17.85;5.25;;;;;;;;;;4927944;28;20034;-84
2022/01/15 00:30:39;;;;;;;13.35;4.22;;;;;;;;;;4930220;28;20039;-84
2022/01/15 00:33:05;;;;;;;21.33;4.53;;;;;;;;;;4925668;29;20027;-84
2022/01/15 00:35:31;;;;;;;15.80;4.10;;;;;;;;;;4926859;29;20035;-83
2022/01/15 00:38:02;;;;;;;17.85;4.95;;;;;;;;;;4927660;28;20027;-84
2022/01/15 00:40:29;;;;;;;34.30;4.65;;;;;;;;;;4923899;29;20034;-83
2022/01/15 00:42:55;;;;;;;37.78;5.32;;;;;;;;;;4943364;28;20451;-83
2022/01/15 00:45:22;;;;;;;34.83;5.47;;;;;;;;;;4939726;28;20065;-83
2022/01/15 00:47:49;;;;;;;48.63;5.10;;;;;;;;;;4928596;29;20118;-83
2022/01/15 00:50:15;;;;;;;41.72;5.63;;;;;;;;;;4924337;28;20031;-83
2022/01/15 00:52:44;;;;;;;29.98;4.63;;;;;;;;;;4926759;29;20123;-83
2022/01/15 00:55:11;;;;;;;25.67;4.07;;;;;;;;;;4924800;29;20031;-83
2022/01/15 00:57:37;;;;;;;25.38;4.20;;;;;;;;;;4926564;29;20456;-83
2022/01/15 01:00:05;;;;;;;35.03;5.95;;;;;;;;;;4942009;28;20058;-82
2022/01/15 01:02:31;;;;;;;76.97;7.90;;;;;;;;;;4929167;28;20121;-82
2022/01/15 01:04:57;;;;;;;64.28;6.82;;;;;;;;;;4931552;28;20081;-83
2022/01/15 01:07:23;;;;;;;23.05;3.75;;;;;;;;;;4917161;28;20420;-83
2022/01/15 01:10:11;;;;;;;7.15;2.70;;;;;;;;;;4927015;28;20598;-83
2022/01/15 01:20:54;;;;;;;14.18;3.28;;;;;;;;;;4939240;28;20054;-83
2022/01/15 01:23:20;;;;;;;8.02;2.78;;;;;;;;;;4928231;28;20506;-83
2022/01/15 01:25:50;;;;;;;14.73;2.90;;;;;;;;;;4942308;28;20046;-83
2022/01/15 01:28:27;;;;;;;9.23;1.77;;;;;;;;;;4933268;29;20662;-83
2022/01/15 01:31:06;;;;;;;7.50;2.45;;;;;;;;;;4926758;28;21975;-83
2022/01/15 01:33:37;;;;;;;4.80;1.73;;;;;;;;;;4930931;29;20429;-83
2022/01/15 01:36:20;;;;;;;4.47;1.77;;;;;;;;;;4926159;29;20047;-83
2022/01/15 01:41:19;;;;;;;3.88;1.65;;;;;;;;;;4940615;28;20102;-83
2022/01/15 01:43:59;;;;;;;7.20;1.60;;;;;;;;;;4927365;28;20579;-83
2022/01/15 01:48:52;;;;;;;8.65;1.70;;;;;;;;;;4937342;28;20407;-80
2022/01/15 01:51:25;;;;;;;3.70;1.40;;;;;;;;;;4940214;28;20080;-81
2022/01/15 01:53:52;;;;;;;4.35;1.73;;;;;;;;;;4926941;28;20130;-79
2022/01/15 01:56:18;;;;;;;7.68;1.63;;;;;;;;;;4924554;28;20035;-80
2022/01/15 01:58:44;;;;;;;5.05;1.88;;;;;;;;;;4925597;28;20063;-80
2022/01/15 02:01:10;;;;;;;3.97;1.95;;;;;;;;;;4939856;28;20453;-80
2022/01/15 02:03:37;;;;;;;11.63;2.92;;;;;;;;;;4926833;28;20043;-81
2022/01/15 02:06:03;;;;;;;8.32;2.30;;;;;;;;;;4930484;28;20658;-80
2022/01/15 02:08:30;;;;;;;7.28;2.13;;;;;;;;;;4927634;29;20363;-80
2022/01/15 02:10:57;;;;;;;8.10;2.03;;;;;;;;;;4922506;28;20388;-81
2022/01/15 02:13:24;;;;;;;12.05;2.53;;;;;;;;;;4936143;28;20032;-80
2022/01/15 02:15:51;;;;;;;5.90;1.52;;;;;;;;;;4926345;28;20523;-80
2022/01/15 02:18:18;;;;;;;3.53;1.67;;;;;;;;;;4918526;29;20038;-80
2022/01/15 02:23:33;;;;;;;3.03;1.20;;;;;;;;;;4934669;28;20441;-80
2022/01/15 02:26:00;;;;;;;7.38;1.50;;;;;;;;;;4926988;28;20121;-80
2022/01/15 02:28:28;;;;;;;3.20;1.38;;;;;;;;;;4926135;29;20035;-80
2022/01/15 02:30:59;;;;;;;3.08;1.17;;;;;;;;;;4924241;29;20511;-80
2022/01/15 02:33:26;;;;;;;2.75;1.40;;;;;;;;;;4922986;29;20040;-79
2022/01/15 02:35:53;;;;;;;3.63;1.30;;;;;;;;;;4934616;28;20034;-80
2022/01/15 02:38:19;;;;;;;3.58;1.52;;;;;;;;;;4931706;29;20035;-80
2022/01/15 02:40:45;;;;;;;3.25;1.60;;;;;;;;;;4924503;28;20035;-80
2022/01/15 02:43:14;;;;;;;7.28;2.30;;;;;;;;;;4928292;29;20608;-80
2022/01/15 02:45:44;;;;;;;5.88;1.30;;;;;;;;;;4928459;28;21059;-80
2022/01/15 02:48:10;;;;;;;10.88;2.58;;;;;;;;;;4934251;28;20054;-80
2022/01/15 02:50:36;;;;;;;10.13;1.70;;;;;;;;;;4944073;28;20055;-80
2022/01/15 02:53:03;;;;;;;3.60;1.50;;;;;;;;;;4926273;28;20031;-80
2022/01/15 02:55:29;;;;;;;13.80;2.30;;;;;;;;;;4924518;29;20296;-80
2022/01/15 02:57:56;;;;;;;7.38;2.00;;;;;;;;;;4925279;29;20032;-80
2022/01/15 03:00:23;;;;;;;8.30;2.13;;;;;;;;;;4929249;29;20146;-80
2022/01/15 03:02:49;;;;;;;17.55;1.95;;;;;;;;;;4928331;28;20060;-80
2022/01/15 03:05:21;;;;;;;13.02;2.50;;;;;;;;;;4929589;28;20122;-80
2022/01/15 03:07:47;;;;;;;16.23;3.15;;;;;;;;;;4925837;28;20031;-80
2022/01/15 03:10:13;;;;;;;31.27;4.10;;;;;;;;;;4928542;28;20038;-80
2022/01/15 03:12:39;;;;;;;14.25;2.70;;;;;;;;;;4929968;29;20035;-80
2022/01/15 03:15:08;;;;;;;17.05;3.10;;;;;;;;;;4937180;28;20076;-79
2022/01/15 03:17:34;;;;;;;10.48;2.38;;;;;;;;;;4930427;29;20054;-80
2022/01/15 03:20:00;;;;;;;6.43;2.33;;;;;;;;;;4929270;28;20122;-80
2022/01/15 03:22:26;;;;;;;10.80;2.63;;;;;;;;;;4939836;28;20051;-79
2022/01/15 03:24:52;;;;;;;12.27;2.80;;;;;;;;;;4956093;28;20050;-80
2022/01/15 03:27:23;;;;;;;9.27;2.25;;;;;;;;;;4951596;28;20042;-79
2022/01/15 03:29:50;;;;;;;11.02;2.35;;;;;;;;;;4939848;28;20603;-80
2022/01/15 03:32:16;;;;;;;5.68;2.20;;;;;;;;;;4946101;28;20030;-80
2022/01/15 03:34:43;;;;;;;8.45;2.85;;;;;;;;;;4946552;28;20041;-80
2022/01/15 03:37:09;;;;;;;8.75;3.13;;;;;;;;;;4947921;28;20042;-80
2022/01/15 03:39:35;;;;;;;5.93;2.92;;;;;;;;;;4953206;28;20046;-80
2022/01/15 03:42:02;;;;;;;9.40;2.53;;;;;;;;;;4944323;28;20640;-80
2022/01/15 03:44:28;;;;;;;10.27;2.95;;;;;;;;;;4948273;28;20027;-80
2022/01/15 03:47:00;;;;;;;14.13;2.80;;;;;;;;;;4945436;28;20081;-80
2022/01/15 03:49:26;;;;;;;7.82;2.70;;;;;;;;;;4949708;28;21408;-80
2022/01/15 03:51:52;;;;;;;8.02;2.95;;;;;;;;;;4951363;28;20063;-80
2022/01/15 03:54:18;;;;;;;7.35;2.63;;;;;;;;;;4968375;28;20070;-79
2022/01/15 03:56:44;;;;;;;10.15;3.15;;;;;;;;;;4946597;28;20864;-80
2022/01/15 03:59:10;;;;;;;12.25;3.47;;;;;;;;;;4942406;28;20042;-80
2022/01/15 04:01:36;;;;;;;10.40;3.17;;;;;;;;;;4964051;28;20113;-80
2022/01/15 04:04:02;;;;;;;12.38;3.83;;;;;;;;;;4947404;28;20122;-80
2022/01/15 04:06:28;;;;;;;18.02;3.33;;;;;;;;;;4963465;28;20086;-80
2022/01/15 04:08:54;;;;;;;11.23;3.05;;;;;;;;;;4960796;28;20022;-80
2022/01/15 04:11:20;;;;;;;11.63;3.65;;;;;;;;;;4950899;28;20038;-79
2022/01/15 04:13:46;;;;;;;12.90;3.67;;;;;;;;;;4945891;28;20042;-80
2022/01/15 04:16:13;;;;;;;13.75;3.55;;;;;;;;;;4945753;28;20049;-80
2022/01/15 04:18:41;;;;;;;11.07;3.47;;;;;;;;;;4954731;28;20031;-80
2022/01/15 04:21:10;;;;;;;16.30;3.90;;;;;;;;;;4945938;28;20199;-80
2022/01/15 04:23:37;;;;;;;12.95;3.45;;;;;;;;;;4953334;28;20082;-80
2022/01/15 04:26:04;;;;;;;11.40;3.65;;;;;;;;;;4958619;28;20034;-80
2022/01/15 04:28:33;;;;;;;16.15;4.63;;;;;;;;;;4956435;28;20557;-80
2022/01/15 04:31:05;;;;;;;23.85;4.15;;;;;;;;;;4959882;28;20054;-80
2022/01/15 04:33:33;;;;;;;22.60;4.47;;;;;;;;;;4948720;28;20030;-80
2022/01/15 04:35:59;;;;;;;16.48;4.00;;;;;;;;;;4948094;28;20034;-80
2022/01/15 04:38:26;;;;;;;34.22;4.43;;;;;;;;;;4944685;28;20031;-80
2022/01/15 04:40:52;;;;;;;17.23;3.70;;;;;;;;;;4943881;28;20413;-80
2022/01/15 04:43:18;;;;;;;11.07;3.35;;;;;;;;;;4945876;28;20043;-79
2022/01/15 04:45:44;;;;;;;44.47;5.03;;;;;;;;;;4960965;28;20035;-80
2022/01/15 04:48:10;;;;;;;21.50;4.65;;;;;;;;;;4940008;28;20183;-80
2022/01/15 04:50:36;;;;;;;14.07;4.28;;;;;;;;;;4955950;28;20671;-80
2022/01/15 04:53:03;;;;;;;43.25;4.97;;;;;;;;;;4940569;28;20216;-80
2022/01/15 04:55:30;;;;;;;16.23;3.83;;;;;;;;;;4948276;28;20386;-80
2022/01/15 04:57:56;;;;;;;14.05;4.55;;;;;;;;;;4943165;28;20031;-80
2022/01/15 05:00:22;;;;;;;13.85;4.68;;;;;;;;;;4941189;28;20330;-80
2022/01/15 05:02:48;;;;;;;13.15;4.10;;;;;;;;;;4944211;28;20511;-80
2022/01/15 05:05:14;;;;;;;12.52;4.07;;;;;;;;;;4947008;28;20484;-80
2022/01/15 05:07:40;;;;;;;12.20;4.38;;;;;;;;;;4944091;28;20114;-80
2022/01/15 05:10:08;;;;;;;9.98;3.47;;;;;;;;;;4944331;28;20525;-80
2022/01/15 05:12:43;;;;;;;12.98;3.90;;;;;;;;;;4947544;28;20027;-80
2022/01/15 05:15:09;;;;;;;18.65;3.80;;;;;;;;;;4957811;28;20468;-80
2022/01/15 05:17:36;;;;;;;16.98;4.13;;;;;;;;;;4943819;28;20383;-79
2022/01/15 05:20:02;;;;;;;13.60;3.58;;;;;;;;;;4956794;28;20362;-80
2022/01/15 05:22:28;;;;;;;16.48;3.85;;;;;;;;;;4961429;28;20517;-80
2022/01/15 05:24:54;;;;;;;10.43;3.45;;;;;;;;;;4916106;28;20569;-80
2022/01/15 05:27:20;;;;;;;10.25;3.22;;;;;;;;;;4945256;28;20035;-80
2022/01/15 05:29:46;;;;;;;8.90;3.38;;;;;;;;;;4927371;29;20038;-80
2022/01/15 05:32:12;;;;;;;13.30;3.70;;;;;;;;;;4938589;28;20039;-80
2022/01/15 05:34:39;;;;;;;17.38;3.80;;;;;;;;;;4929794;29;20027;-80
2022/01/15 05:37:05;;;;;;;13.90;3.88;;;;;;;;;;4931875;28;20158;-80
2022/01/15 05:39:31;;;;;;;12.82;3.75;;;;;;;;;;4942289;28;20886;-80
2022/01/15 05:41:57;;;;;;;16.05;3.80;;;;;;;;;;4930231;29;20035;-80
2022/01/15 05:44:23;;;;;;;14.38;4.03;;;;;;;;;;4929311;29;20425;-79
2022/01/15 05:46:49;;;;;;;11.75;3.70;;;;;;;;;;4940144;28;20035;-80
2022/01/15 05:49:15;;;;;;;16.08;4.57;;;;;;;;;;4920505;29;20038;-80
2022/01/15 05:51:41;;;;;;;12.00;4.32;;;;;;;;;;4924559;28;20031;-80
2022/01/15 05:54:10;;;;;;;23.38;4.82;;;;;;;;;;4918738;28;20571;-80
2022/01/15 05:56:36;;;;;;;13.40;4.45;;;;;;;;;;4939080;28;20019;-80
2022/01/15 05:59:03;;;;;;;20.13;4.57;;;;;;;;;;4920664;28;20122;-80
2022/01/15 06:01:29;;;;;;;17.48;5.13;;;;;;;;;;4919221;29;20035;-80
2022/01/15 06:03:55;;;;;;;11.48;3.60;;;;;;;;;;4925776;29;20028;-80
2022/01/15 06:06:21;;;;;;;14.10;3.58;;;;;;;;;;4943441;28;20032;-79
2022/01/15 06:08:48;;;;;;;10.65;3.85;;;;;;;;;;4929878;29;20035;-80
2022/01/15 06:11:18;;;;;;;13.05;3.95;;;;;;;;;;4926025;29;20572;-80
2022/01/15 06:13:48;;;;;;;12.98;4.50;;;;;;;;;;4939486;28;20016;-79
2022/01/15 06:16:14;;;;;;;14.85;4.53;;;;;;;;;;4929065;28;20035;-80
2022/01/15 06:18:40;;;;;;;16.73;4.78;;;;;;;;;;4921912;28;20040;-80
2022/01/15 06:21:07;;;;;;;20.30;4.38;;;;;;;;;;4932438;28;20038;-79
2022/01/15 06:23:33;;;;;;;15.95;4.25;;;;;;;;;;4958782;28;20495;-80
2022/01/15 06:25:59;;;;;;;11.38;3.42;;;;;;;;;;4953023;28;20046;-80
2022/01/15 06:28:25;;;;;;;12.75;3.85;;;;;;;;;;4954171;28;20026;-80
2022/01/15 06:30:51;;;;;;;11.55;3.70;;;;;;;;;;4943267;28;20053;-80
2022/01/15 06:33:17;;;;;;;20.02;4.78;;;;;;;;;;4948396;28;20054;-80
2022/01/15 06:35:43;;;;;;;15.65;4.65;;;;;;;;;;4946714;28;20109;-80
2022/01/15 06:38:09;;;;;;;16.65;4.93;;;;;;;;;;4951300;28;20530;-80
2022/01/15 06:40:35;;;;;;;12.25;4.30;;;;;;;;;;4961522;28;20035;-80
2022/01/15 06:43:01;;;;;;;18.85;4.68;;;;;;;;;;4947204;28;20046;-80
2022/01/15 06:45:28;;;;;;;14.32;4.43;;;;;;;;;;4948616;28;20031;-80
2022/01/15 06:47:54;;;;;;;16.38;5.18;;;;;;;;;;4949623;28;20115;-79
2022/01/15 06:50:22;;;;;;;19.40;4.70;;;;;;;;;;4944006;28;20041;-80
2022/01/15 06:52:48;;;;;;;17.55;4.55;;;;;;;;;;4948045;28;20110;-80
2022/01/15 06:55:15;;;;;;;17.10;4.63;;;;;;;;;;4964781;28;20479;-80
2022/01/15 06:57:41;;;;;;;11.95;4.70;;;;;;;;;;4945647;28;20318;-80
2022/01/15 07:00:08;;;;;;;13.55;4.15;;;;;;;;;;4948490;28;20341;-80
2022/01/15 07:02:34;;;;;;;12.15;3.60;;;;;;;;;;4958435;28;20543;-80
2022/01/15 07:05:00;;;;;;;11.10;4.00;;;;;;;;;;4948888;28;20143;-80
2022/01/15 07:07:26;;;;;;;9.38;3.40;;;;;;;;;;4940935;28;20039;-80
2022/01/15 07:09:52;;;;;;;11.07;3.65;;;;;;;;;;4946249;28;20097;-80
2022/01/15 07:12:18;;;;;;;9.15;3.38;;;;;;;;;;4947337;28;20031;-80
2022/01/15 07:14:44;;;;;;;10.85;3.45;;;;;;;;;;4944492;28;20040;-80
2022/01/15 07:17:10;;;;;;;12.90;3.75;;;;;;;;;;4946771;28;20290;-80
2022/01/15 07:19:37;;;;;;;9.75;3.28;;;;;;;;;;4949217;28;20697;-80
2022/01/15 07:22:04;;;;;;;17.13;3.63;;;;;;;;;;4953055;28;20078;-79
2022/01/15 07:24:30;;;;;;;17.13;3.95;;;;;;;;;;4948585;28;20391;-80
2022/01/15 07:26:57;;;;;;;13.13;3.45;;;;;;;;;;4949747;28;20735;-79
2022/01/15 07:29:24;;;;;;;11.02;3.80;;;;;;;;;;4946072;28;20495;-80
2022/01/15 07:31:51;;;;;;;10.13;3.17;;;;;;;;;;4948247;28;20024;-80
2022/01/15 07:34:18;;;;;;;10.50;3.33;;;;;;;;;;4942845;28;20027;-80
2022/01/15 07:36:44;;;;;;;16.85;4.22;;;;;;;;;;4939724;28;20043;-80
2022/01/15 07:39:10;;;;;;;15.27;4.13;;;;;;;;;;4944058;28;20135;-80
2022/01/15 07:41:36;;;;;;;15.95;4.18;;;;;;;;;;4936948;28;20392;-80
2022/01/15 07:44:03;;;;;;;14.75;4.75;;;;;;;;;;4935096;28;20039;-80
2022/01/15 07:46:29;;;;;;;15.70;4.22;;;;;;;;;;4947760;28;20479;-80
2022/01/15 07:48:55;;;;;;;13.60;3.75;;;;;;;;;;4943099;28;20038;-80
2022/01/15 07:51:21;;;;;;;13.65;3.80;;;;;;;;;;4934671;28;20245;-80
2022/01/15 07:53:47;;;;;;;12.43;4.30;;;;;;;;;;4939553;28;20027;-79
2022/01/15 07:56:13;;;;;;;14.65;3.78;;;;;;;;;;4945710;28;20034;-80
2022/01/15 07:58:39;;;;;;;11.93;3.75;;;;;;;;;;4945600;28;20037;-80
2022/01/15 08:01:05;;;;;;;10.23;2.90;;;;;;;;;;4952149;28;20042;-79
2022/01/15 08:03:32;;;;;;;14.45;3.75;;;;;;;;;;4947518;28;20035;-80
2022/01/15 08:05:58;;;;;;;10.93;3.33;;;;;;;;;;4942755;28;20462;-80
2022/01/15 08:08:24;;;;;;;10.73;3.92;;;;;;;;;;4947395;28;20023;-80
2022/01/15 08:10:50;;;;;;;7.65;3.28;;;;;;;;;;4958949;28;20026;-79
2022/01/15 08:13:16;;;;;;;9.23;3.55;;;;;;;;;;4956955;28;20042;-80
2022/01/15 08:15:43;;;;;;;12.65;3.63;;;;;;;;;;4946215;28;20025;-80
2022/01/15 08:18:09;;;;;;;9.77;3.33;;;;;;;;;;4961017;28;20038;-80
2022/01/15 08:20:35;;;;;;;10.50;3.38;;;;;;;;;;4947863;28;20099;-79
2022/01/15 08:23:07;;;;;;;10.73;3.42;;;;;;;;;;4964305;28;20084;-79
2022/01/15 08:25:41;;;;;;;12.10;3.67;;;;;;;;;;4956502;28;20605;-80
2022/01/15 08:28:07;;;;;;;11.90;3.90;;;;;;;;;;4960828;28;20047;-80
2022/01/15 08:30:33;;;;;;;12.35;5.20;;;;;;;;;;4939642;28;20534;-80
2022/01/15 08:32:59;;;;;;;14.43;5.65;;;;;;;;;;4946786;28;20559;-79
2022/01/15 08:35:26;;;;;;;14.90;4.30;;;;;;;;;;4943434;28;20082;-80
2022/01/15 08:37:54;;;;;;;12.55;3.63;;;;;;;;;;4948283;28;20125;-79
2022/01/15 08:40:20;;;;;;;11.00;3.80;;;;;;;;;;4941874;28;20027;-80
2022/01/15 08:42:47;;;;;;;8.50;3.25;;;;;;;;;;4967156;28;20064;-79
2022/01/15 08:45:14;;;;;;;8.65;3.10;;;;;;;;;;4955734;28;20478;-80
2022/01/15 08:47:41;;;;;;;11.60;3.83;;;;;;;;;;4942590;28;20600;-84
2022/01/15 08:50:08;;;;;;;7.47;3.20;;;;;;;;;;4947459;28;20045;-82
2022/01/15 08:52:34;;;;;;;10.18;4.00;;;;;;;;;;4958852;28;20054;-82
2022/01/15 08:55:02;;;;;;;8.25;3.47;;;;;;;;;;4963029;28;20435;-82
2022/01/15 08:57:27;;;;;;;10.65;4.07;;;;;;;;;;4945132;28;20066;-83
2022/01/15 08:59:53;;;;;;;12.90;3.40;;;;;;;;;;4962086;28;20066;-82
2022/01/15 09:02:19;;;;;;;11.82;3.17;;;;;;;;;;4947382;28;20444;-83
2022/01/15 09:04:46;;;;;;;7.15;3.22;;;;;;;;;;4945397;28;20043;-82
2022/01/15 09:07:12;;;;;;;5.40;2.03;;;;;;;;;;4922735;28;20105;-82
2022/01/15 09:09:38;;;;;;;6.85;3.30;;;;;;;;;;4959939;28;20035;-83
2022/01/15 09:12:04;;;;;;;6.93;2.67;;;;;;;;;;4941406;28;20027;-83
2022/01/15 09:14:31;;;;;;;6.90;2.67;;;;;;;;;;4947207;28;20693;-84
2022/01/15 09:16:57;;;;;;;6.00;2.85;;;;;;;;;;4942489;28;20031;-83
2022/01/15 09:19:23;;;;;;;8.77;3.22;;;;;;;;;;4947213;28;20094;-83
2022/01/15 09:21:49;;;;;;;11.05;3.00;;;;;;;;;;4945040;28;20026;-83
2022/01/15 09:24:15;;;;;;;5.15;2.10;;;;;;;;;;4931786;28;20386;-83
2022/01/15 09:26:48;;;;;;;9.65;3.78;;;;;;;;;;4940849;28;20071;-83
2022/01/15 09:32:00;;;;;;;4.47;1.93;;;;;;;;;;4942441;28;20038;-83
2022/01/15 09:34:26;;;;;;;7.15;2.30;;;;;;;;;;4939904;29;20779;-84
2022/01/15 09:36:52;;;;;;;5.43;2.83;;;;;;;;;;4925663;29;20040;-83
2022/01/15 09:39:19;;;;;;;6.63;2.67;;;;;;;;;;4920588;29;20038;-83
2022/01/15 09:41:47;;;;;;;4.22;2.20;;;;;;;;;;4923824;29;20118;-83
2022/01/15 09:44:14;;;;;;;6.32;2.95;;;;;;;;;;4938437;28;20027;-83
2022/01/15 09:46:40;;;;;;;7.30;2.67;;;;;;;;;;4925620;28;20046;-83
2022/01/15 09:49:06;;;;;;;6.32;2.88;;;;;;;;;;4925956;29;20398;-82
2022/01/15 09:51:33;;;;;;;9.82;3.70;;;;;;;;;;4927635;29;20527;-83
2022/01/15 09:53:59;;;;;;;9.55;2.63;;;;;;;;;;4940047;28;20539;-82
2022/01/15 09:56:25;;;;;;;11.25;4.00;;;;;;;;;;4940080;28;20047;-83
2022/01/15 09:58:53;;;;;;;10.80;4.10;;;;;;;;;;4927575;28;20430;-83
2022/01/15 10:01:20;;;;;;;9.85;3.47;;;;;;;;;;4940550;28;20465;-83
2022/01/15 10:03:46;;;;;;;9.55;4.00;;;;;;;;;;4925162;29;20059;-84
2022/01/15 10:06:12;;;;;;;9.38;4.05;;;;;;;;;;4911198;29;20059;-83
2022/01/15 10:08:38;;;;;;;11.52;5.35;;;;;;;;;;4920605;28;20031;-84
2022/01/15 10:11:11;;;;;;;10.68;4.65;;;;;;;;;;4927025;28;20083;-83
2022/01/15 10:13:44;;;;;;;14.20;5.43;;;;;;;;;;4939778;29;20079;-83
2022/01/15 10:16:14;;;;;;;11.18;5.00;;;;;;;;;;4936822;28;20939;-83
2022/01/15 10:18:45;;;;;;;10.93;4.90;;;;;;;;;;4927048;29;20586;-84
2022/01/15 10:21:15;;;;;;;11.40;4.25;;;;;;;;;;4926122;28;20042;-83
2022/01/15 10:23:56;;;;;;;14.05;5.82;;;;;;;;;;4928643;28;20051;-83
2022/01/15 10:26:31;;;;;;;14.88;5.40;;;;;;;;;;4945684;28;20555;-84
2022/01/15 10:28:59;;;;;;;15.83;6.83;;;;;;;;;;4937999;29;20023;-83
2022/01/15 10:31:26;;;;;;;14.95;6.25;;;;;;;;;;4920065;28;20507;-84
2022/01/15 10:33:53;;;;;;;16.25;6.40;;;;;;;;;;4923561;28;20079;-83
2022/01/15 10:36:42;;;;;;;18.48;7.03;;;;;;;;;;4923150;28;20031;-83
2022/01/15 10:39:12;;;;;;;22.35;7.80;;;;;;;;;;4937509;28;20041;-84
2022/01/15 10:41:38;;;;;;;20.48;8.32;;;;;;;;;;4925784;29;20034;-83
2022/01/15 10:44:24;;;;;;;18.85;7.45;;;;;;;;;;4928119;29;20039;-83
2022/01/15 10:46:50;;;;;;;15.82;5.97;;;;;;;;;;4921261;28;20091;-84
2022/01/15 10:49:23;;;;;;;19.40;7.85;;;;;;;;;;4928581;28;20034;-83
2022/01/15 10:52:08;;;;;;;21.48;7.57;;;;;;;;;;4942365;28;20023;-82
2022/01/15 10:54:35;;;;;;;18.52;7.68;;;;;;;;;;4921687;29;20035;-84
2022/01/15 10:57:09;;;;;;;16.58;7.38;;;;;;;;;;4929122;28;20050;-83
2022/01/15 10:59:35;;;;;;;18.10;7.25;;;;;;;;;;4923868;29;20064;-83
2022/01/15 11:02:16;;;;;;;17.98;7.05;;;;;;;;;;4926034;28;20923;-83
2022/01/15 11:04:42;;;;;;;27.25;8.07;;;;;;;;;;4939852;28;20047;-83
2022/01/15 11:07:11;;;;;;;15.65;7.40;;;;;;;;;;4935202;28;20044;-83
2022/01/15 11:09:38;;;;;;;18.85;7.07;;;;;;;;;;4928590;28;20039;-83
2022/01/15 11:12:05;;;;;;;19.15;5.53;;;;;;;;;;4928606;28;20396;-83
2022/01/15 11:14:31;;;;;;;10.65;4.47;;;;;;;;;;4929334;29;20031;-83
2022/01/15 11:16:59;;;;;;;12.18;4.85;;;;;;;;;;4946216;28;20038;-83
2022/01/15 11:19:28;;;;;;;14.05;5.70;;;;;;;;;;4947909;28;20027;-83
2022/01/15 11:21:54;;;;;;;15.30;6.18;;;;;;;;;;4928879;29;20471;-84
2022/01/15 11:24:21;;;;;;;8.82;3.38;;;;;;;;;;4940679;28;20516;-83
2022/01/15 11:26:52;;;;;;;14.40;6.00;;;;;;;;;;4959800;28;20467;-83
2022/01/15 11:29:18;;;;;;;11.18;5.38;;;;;;;;;;4946640;28;20024;-83
2022/01/15 11:31:45;;;;;;;14.30;5.45;;;;;;;;;;4941154;28;20073;-83
2022/01/15 11:34:14;;;;;;;15.27;6.72;;;;;;;;;;4947784;28;20767;-83
2022/01/15 11:36:41;;;;;;;19.00;6.80;;;;;;;;;;4944473;28;20086;-82
2022/01/15 11:39:08;;;;;;;15.48;6.43;;;;;;;;;;4946609;28;20079;-83
2022/01/15 11:41:37;;;;;;;16.73;7.10;;;;;;;;;;4952561;28;20042;-84
2022/01/15 11:44:04;;;;;;;16.08;7.60;;;;;;;;;;4958321;28;20027;-84
2022/01/15 11:46:34;;;;;;;14.00;4.93;;;;;;;;;;4948258;28;20039;-83
2022/01/15 11:49:23;;;;;;;17.95;7.13;;;;;;;;;;4959713;28;20023;-84
2022/01/15 11:51:49;;;;;;;12.52;5.82;;;;;;;;;;4943191;28;20554;-84
2022/01/15 11:54:15;;;;;;;15.20;6.65;;;;;;;;;;4952693;28;20051;-83
2022/01/15 11:56:46;;;;;;;11.50;5.18;;;;;;;;;;4947736;28;20053;-84
2022/01/15 11:59:28;;;;;;;13.95;6.72;;;;;;;;;;4948255;28;20628;-84
2022/01/15 12:02:06;;;;;;;11.93;5.85;;;;;;;;;;4943385;28;20581;-82
2022/01/15 12:04:39;;;;;;;17.23;8.27;;;;;;;;;;4950280;28;20030;-83
2022/01/15 12:07:05;;;;;;;21.58;8.10;;;;;;;;;;4955361;28;20059;-83
2022/01/15 12:09:31;;;;;;;12.25;6.05;;;;;;;;;;4961514;28;20478;-84
2022/01/15 12:11:57;;;;;;;20.33;8.40;;;;;;;;;;4959997;28;20428;-83
2022/01/15 12:14:42;;;;;;;20.10;7.38;;;;;;;;;;4947383;28;20027;-83
2022/01/15 12:17:27;;;;;;;17.27;7.32;;;;;;;;;;4946523;28;20032;-83
2022/01/15 12:19:54;;;;;;;14.80;7.13;;;;;;;;;;4947946;28;20536;-84
2022/01/15 12:22:36;;;;;;;18.52;8.27;;;;;;;;;;4944424;28;20047;-83
2022/01/15 12:25:04;;;;;;;16.05;7.38;;;;;;;;;;4929675;28;20467;-84
2022/01/15 12:27:31;;;;;;;19.65;8.23;;;;;;;;;;4924727;29;20656;-84
2022/01/15 12:29:58;;;;;;;19.13;7.32;;;;;;;;;;4922399;29;20042;-84
2022/01/15 12:32:28;;;;;;;17.48;8.40;;;;;;;;;;4925709;28;20373;-84
2022/01/15 12:34:55;;;;;;;17.02;7.82;;;;;;;;;;4927265;29;20507;-84
2022/01/15 12:37:22;;;;;;;20.90;9.80;;;;;;;;;;4938378;28;20139;-84
2022/01/15 12:39:49;;;;;;;8.48;3.50;;;;;;;;;;4931698;29;20500;-84
2022/01/15 12:42:17;;;;;;;14.98;7.68;;;;;;;;;;4929183;29;20032;-84
2022/01/15 12:44:53;;;;;;;21.48;9.40;;;;;;;;;;4945766;28;20027;-84
2022/01/15 12:47:19;;;;;;;24.27;8.88;;;;;;;;;;4925422;29;20049;-84
2022/01/15 12:49:49;;;;;;;9.93;4.93;;;;;;;;;;4927425;29;20748;-84
2022/01/15 12:52:17;;;;;;;12.88;5.43;;;;;;;;;;4923797;28;20028;-83
2022/01/15 12:54:47;;;;;;;24.45;8.43;;;;;;;;;;4939227;28;20115;-84
2022/01/15 12:57:13;;;;;;;14.13;5.50;;;;;;;;;;4928343;29;20091;-84
2022/01/15 12:59:39;;;;;;;16.85;7.18;;;;;;;;;;4923805;28;20035;-84
2022/01/15 13:02:06;;;;;;;19.02;9.07;;;;;;;;;;4938163;28;20484;-84
2022/01/15 13:04:32;;;;;;;19.65;8.90;;;;;;;;;;4921076;28;20091;-84
2022/01/15 13:06:59;;;;;;;16.55;7.13;;;;;;;;;;4927685;28;20503;-84
2022/01/15 13:09:38;;;;;;;24.02;10.57;;;;;;;;;;4918932;29;21445;-84
2022/01/15 13:12:06;;;;;;;13.50;5.22;;;;;;;;;;4940400;28;20039;-84
2022/01/15 13:14:37;;;;;;;16.25;7.78;;;;;;;;;;4927761;29;20059;-84
2022/01/15 13:17:03;;;;;;;22.08;9.80;;;;;;;;;;4941150;29;20430;-84
2022/01/15 13:19:37;;;;;;;22.13;10.25;;;;;;;;;;4927983;29;20035;-84
2022/01/15 13:22:03;;;;;;;23.50;9.45;;;;;;;;;;4922687;29;20047;-84
2022/01/15 13:24:42;;;;;;;29.40;11.27;;;;;;;;;;4957842;28;20047;-84
2022/01/15 13:27:08;;;;;;;23.98;9.98;;;;;;;;;;4946666;28;20039;-84
2022/01/15 13:29:38;;;;;;;22.83;10.63;;;;;;;;;;4947059;28;20047;-82
2022/01/15 13:32:07;;;;;;;24.60;11.15;;;;;;;;;;4943450;28;20712;-84
2022/01/15 13:34:34;;;;;;;23.38;10.88;;;;;;;;;;4943642;28;20038;-84
2022/01/15 13:37:12;;;;;;;26.40;10.57;;;;;;;;;;4958203;28;20912;-84
2022/01/15 13:39:39;;;;;;;28.60;11.13;;;;;;;;;;4946280;28;20179;-84
2022/01/15 13:42:05;;;;;;;23.77;10.05;;;;;;;;;;4946910;28;20028;-83
2022/01/15 13:44:32;;;;;;;22.67;9.95;;;;;;;;;;4944540;28;20174;-84
2022/01/15 13:47:07;;;;;;;27.13;11.30;;;;;;;;;;4948668;28;20051;-84
2022/01/15 13:55:11;;;;;;;30.20;11.05;;;;;;;;;;4959009;28;20407;-83
2022/01/15 13:57:38;;;;;;;31.38;13.25;;;;;;;;;;4946214;28;20019;-84
2022/01/15 14:00:11;;;;;;;30.00;12.05;;;;;;;;;;4967577;28;20034;-84
2022/01/15 14:02:37;;;;;;;29.02;12.00;;;;;;;;;;4946438;28;20034;-83
2022/01/15 14:05:10;;;;;;;15.80;7.00;;;;;;;;;;4961485;28;20035;-84
2022/01/15 14:07:40;;;;;;;29.05;12.50;;;;;;;;;;4963311;28;20053;-84
2022/01/15 14:10:18;;;;;;;26.05;10.45;;;;;;;;;;4940427;28;20535;-84
2022/01/15 14:12:44;;;;;;;23.27;9.63;;;;;;;;;;4947111;28;20053;-84
2022/01/15 14:15:15;;;;;;;30.02;13.02;;;;;;;;;;4958661;28;20062;-83
2022/01/15 14:17:45;;;;;;;27.85;13.20;;;;;;;;;;4963835;28;20031;-84
2022/01/15 14:22:49;;;;;;;30.30;12.88;;;;;;;;;;4964881;28;20093;-84
2022/01/15 14:25:15;;;;;;;35.88;13.75;;;;;;;;;;4961606;28;20122;-84
2022/01/15 14:27:41;;;;;;;32.75;13.05;;;;;;;;;;4950068;28;20043;-83
2022/01/15 14:30:07;;;;;;;27.33;11.68;;;;;;;;;;4949873;28;20050;-82
2022/01/15 14:32:33;;;;;;;33.80;13.30;;;;;;;;;;4945889;28;20035;-84
2022/01/15 14:34:59;;;;;;;27.65;12.32;;;;;;;;;;4950038;28;20041;-84
2022/01/15 14:37:28;;;;;;;31.27;12.73;;;;;;;;;;4957823;28;20655;-84
2022/01/15 14:39:54;;;;;;;29.67;12.45;;;;;;;;;;4942558;28;20050;-84
2022/01/15 14:42:20;;;;;;;34.10;14.50;;;;;;;;;;4951085;28;20030;-84
2022/01/15 14:44:46;;;;;;;29.98;12.82;;;;;;;;;;4946581;28;20097;-84
2022/01/15 14:47:13;;;;;;;27.30;12.18;;;;;;;;;;4949242;28;20043;-84
2022/01/15 14:49:39;;;;;;;35.97;12.80;;;;;;;;;;4949609;28;20046;-84
2022/01/15 14:52:06;;;;;;;26.05;11.80;;;;;;;;;;4953651;28;20031;-84
2022/01/15 14:54:32;;;;;;;29.17;13.70;;;;;;;;;;4961948;28;20039;-84
2022/01/15 14:56:58;;;;;;;31.88;14.15;;;;;;;;;;4963812;28;20027;-84
2022/01/15 14:59:24;;;;;;;36.22;14.77;;;;;;;;;;4951512;28;20031;-84
2022/01/15 15:01:51;;;;;;;28.90;12.32;;;;;;;;;;4953031;28;20035;-84